sensor_id;sensor_type;location;lat;lon;timestamp;P1;durP1;ratioP1;P2;durP2;ratioP2
52798;SDS011;38667;42.872;74.622;2023-11-18T00:00:46;6.45;;;2.58;;
52798;SDS011;38667;42.872;74.622;2023-11-18T00:03:14;12.43;;;2.80;;
52798;SDS011;38667;42.872;74.622;2023-11-18T00:05:40;16.13;;;3.67;;
52798;SDS011;38667;42.872;74.622;2023-11-18T00:08:06;11.45;;;3.28;;
52798;SDS011;38667;42.872;74.622;2023-11-18T00:10:33;15.95;;;3.30;;
52798;SDS011;38667;42.872;74.622;2023-11-18T00:12:59;9.55;;;3.08;;
52798;SDS011;38667;42.872;74.622;2023-11-18T00:15:25;10.02;;;2.85;;
52798;SDS011;38667;42.872;74.622;2023-11-18T00:17:51;14.82;;;3.55;;
52798;SDS011;38667;42.872;74.622;2023-11-18T00:20:19;18.30;;;2.72;;
52798;SDS011;38667;42.872;74.622;2023-11-18T00:22:45;9.77;;;2.40;;
52798;SDS011;38667;42.872;74.622;2023-11-18T00:25:12;14.30;;;2.10;;
52798;SDS011;38667;42.872;74.622;2023-11-18T00:27:38;15.85;;;3.28;;
52798;SDS011;38667;42.872;74.622;2023-11-18T00:30:05;13.85;;;3.75;;
52798;SDS011;38667;42.872;74.622;2023-11-18T00:32:32;16.00;;;3.80;;
52798;SDS011;38667;42.872;74.622;2023-11-18T00:34:58;18.77;;;3.88;;
52798;SDS011;38667;42.872;74.622;2023-11-18T00:37:26;9.70;;;3.67;;
52798;SDS011;38667;42.872;74.622;2023-11-18T00:39:52;12.50;;;4.20;;
52798;SDS011;38667;42.872;74.622;2023-11-18T00:42:19;13.13;;;3.63;;
52798;SDS011;38667;42.872;74.622;2023-11-18T00:44:45;7.72;;;3.88;;
52798;SDS011;38667;42.872;74.622;2023-11-18T00:47:11;13.43;;;3.70;;
52798;SDS011;38667;42.872;74.622;2023-11-18T00:49:38;12.57;;;4.43;;
52798;SDS011;38667;42.872;74.622;2023-11-18T00:52:04;10.75;;;3.78;;
52798;SDS011;38667;42.872;74.622;2023-11-18T00:54:32;13.93;;;3.88;;
52798;SDS011;38667;42.872;74.622;2023-11-18T00:57:00;10.55;;;3.60;;
52798;SDS011;38667;42.872;74.622;2023-11-18T00:59:26;14.70;;;3.97;;
52798;SDS011;38667;42.872;74.622;2023-11-18T01:01:52;11.88;;;4.05;;
52798;SDS011;38667;42.872;74.622;2023-11-18T01:04:19;14.73;;;3.50;;
52798;SDS011;38667;42.872;74.622;2023-11-18T01:06:45;6.75;;;2.92;;
52798;SDS011;38667;42.872;74.622;2023-11-18T01:09:11;10.52;;;2.80;;
52798;SDS011;38667;42.872;74.622;2023-11-18T01:11:39;7.60;;;2.53;;
52798;SDS011;38667;42.872;74.622;2023-11-18T01:14:05;8.38;;;2.17;;
52798;SDS011;38667;42.872;74.622;2023-11-18T01:16:32;10.05;;;2.30;;
52798;SDS011;38667;42.872;74.622;2023-11-18T01:18:58;13.90;;;2.50;;
52798;SDS011;38667;42.872;74.622;2023-11-18T01:21:24;11.75;;;2.15;;
52798;SDS011;38667;42.872;74.622;2023-11-18T01:23:50;8.25;;;1.80;;
52798;SDS011;38667;42.872;74.622;2023-11-18T01:26:17;10.02;;;1.63;;
52798;SDS011;38667;42.872;74.622;2023-11-18T01:28:45;12.23;;;1.67;;
52798;SDS011;38667;42.872;74.622;2023-11-18T01:31:11;6.43;;;1.00;;
52798;SDS011;38667;42.872;74.622;2023-11-18T01:33:37;10.05;;;1.70;;
52798;SDS011;38667;42.872;74.622;2023-11-18T01:36:05;12.88;;;1.40;;
52798;SDS011;38667;42.872;74.622;2023-11-18T01:38:32;6.00;;;1.30;;
52798;SDS011;38667;42.872;74.622;2023-11-18T01:40:58;6.50;;;1.30;;
52798;SDS011;38667;42.872;74.622;2023-11-18T01:43:24;12.43;;;1.70;;
52798;SDS011;38667;42.872;74.622;2023-11-18T01:45:52;8.65;;;1.10;;
52798;SDS011;38667;42.872;74.622;2023-11-18T01:48:19;6.43;;;1.63;;
52798;SDS011;38667;42.872;74.622;2023-11-18T01:50:45;8.52;;;1.30;;
52798;SDS011;38667;42.872;74.622;2023-11-18T01:53:12;6.95;;;1.58;;
52798;SDS011;38667;42.872;74.622;2023-11-18T01:55:38;7.72;;;2.03;;
52798;SDS011;38667;42.872;74.622;2023-11-18T01:58:04;5.20;;;1.92;;
52798;SDS011;38667;42.872;74.622;2023-11-18T02:00:31;10.75;;;1.80;;
52798;SDS011;38667;42.872;74.622;2023-11-18T02:02:59;8.88;;;2.10;;
52798;SDS011;38667;42.872;74.622;2023-11-18T02:05:25;5.00;;;1.73;;
52798;SDS011;38667;42.872;74.622;2023-11-18T02:07:51;7.60;;;2.05;;
52798;SDS011;38667;42.872;74.622;2023-11-18T02:10:18;13.23;;;1.95;;
52798;SDS011;38667;42.872;74.622;2023-11-18T02:12:46;6.32;;;1.75;;
52798;SDS011;38667;42.872;74.622;2023-11-18T02:15:19;7.45;;;1.98;;
52798;SDS011;38667;42.872;74.622;2023-11-18T02:17:47;9.95;;;2.28;;
52798;SDS011;38667;42.872;74.622;2023-11-18T02:20:19;4.75;;;2.15;;
52798;SDS011;38667;42.872;74.622;2023-11-18T02:22:46;9.43;;;2.70;;
52798;SDS011;38667;42.872;74.622;2023-11-18T02:25:14;10.63;;;3.25;;
52798;SDS011;38667;42.872;74.622;2023-11-18T02:27:43;19.83;;;4.03;;
52798;SDS011;38667;42.872;74.622;2023-11-18T02:30:09;16.70;;;3.05;;
52798;SDS011;38667;42.872;74.622;2023-11-18T02:32:37;12.25;;;2.35;;
52798;SDS011;38667;42.872;74.622;2023-11-18T02:35:09;7.22;;;2.45;;
52798;SDS011;38667;42.872;74.622;2023-11-18T02:37:38;8.88;;;2.60;;
52798;SDS011;38667;42.872;74.622;2023-11-18T02:40:05;6.90;;;2.10;;
52798;SDS011;38667;42.872;74.622;2023-11-18T02:42:35;6.38;;;2.60;;
52798;SDS011;38667;42.872;74.622;2023-11-18T02:45:05;7.72;;;2.63;;
52798;SDS011;38667;42.872;74.622;2023-11-18T02:47:33;5.90;;;2.15;;
52798;SDS011;38667;42.872;74.622;2023-11-18T02:49:59;6.97;;;2.50;;
52798;SDS011;38667;42.872;74.622;2023-11-18T02:52:25;9.40;;;2.22;;
52798;SDS011;38667;42.872;74.622;2023-11-18T02:54:52;17.60;;;2.70;;
52798;SDS011;38667;42.872;74.622;2023-11-18T02:57:18;7.57;;;3.13;;
52798;SDS011;38667;42.872;74.622;2023-11-18T02:59:44;13.75;;;3.95;;
52798;SDS011;38667;42.872;74.622;2023-11-18T03:02:12;15.10;;;3.45;;
52798;SDS011;38667;42.872;74.622;2023-11-18T03:04:38;10.40;;;3.25;;
52798;SDS011;38667;42.872;74.622;2023-11-18T03:07:05;12.93;;;2.75;;
52798;SDS011;38667;42.872;74.622;2023-11-18T03:09:32;9.88;;;2.78;;
52798;SDS011;38667;42.872;74.622;2023-11-18T03:11:59;8.93;;;2.50;;
52798;SDS011;38667;42.872;74.622;2023-11-18T03:14:25;13.13;;;2.65;;
52798;SDS011;38667;42.872;74.622;2023-11-18T03:16:51;10.45;;;2.50;;
52798;SDS011;38667;42.872;74.622;2023-11-18T03:19:19;7.22;;;2.38;;
52798;SDS011;38667;42.872;74.622;2023-11-18T03:21:50;7.57;;;2.33;;
52798;SDS011;38667;42.872;74.622;2023-11-18T03:24:16;9.80;;;3.08;;
52798;SDS011;38667;42.872;74.622;2023-11-18T03:26:42;9.35;;;2.80;;
52798;SDS011;38667;42.872;74.622;2023-11-18T03:29:09;9.60;;;2.67;;
52798;SDS011;38667;42.872;74.622;2023-11-18T03:31:35;7.57;;;2.42;;
52798;SDS011;38667;42.872;74.622;2023-11-18T03:34:01;7.13;;;2.45;;
52798;SDS011;38667;42.872;74.622;2023-11-18T03:36:29;8.32;;;2.50;;
52798;SDS011;38667;42.872;74.622;2023-11-18T03:38:55;15.30;;;2.45;;
52798;SDS011;38667;42.872;74.622;2023-11-18T03:41:22;7.45;;;2.63;;
52798;SDS011;38667;42.872;74.622;2023-11-18T03:43:48;6.72;;;3.42;;
52798;SDS011;38667;42.872;74.622;2023-11-18T03:46:14;7.53;;;2.92;;
52798;SDS011;38667;42.872;74.622;2023-11-18T03:48:41;8.80;;;2.95;;
52798;SDS011;38667;42.872;74.622;2023-11-18T03:51:09;7.55;;;3.13;;
52798;SDS011;38667;42.872;74.622;2023-11-18T03:53:37;9.18;;;3.10;;
52798;SDS011;38667;42.872;74.622;2023-11-18T03:56:03;9.45;;;2.53;;
52798;SDS011;38667;42.872;74.622;2023-11-18T03:58:30;6.68;;;2.88;;
52798;SDS011;38667;42.872;74.622;2023-11-18T04:00:56;9.18;;;3.13;;
52798;SDS011;38667;42.872;74.622;2023-11-18T04:03:22;16.17;;;3.38;;
52798;SDS011;38667;42.872;74.622;2023-11-18T04:05:49;5.93;;;2.90;;
52798;SDS011;38667;42.872;74.622;2023-11-18T04:08:15;8.90;;;3.28;;
52798;SDS011;38667;42.872;74.622;2023-11-18T04:10:43;11.48;;;3.55;;
52798;SDS011;38667;42.872;74.622;2023-11-18T04:13:09;33.08;;;10.20;;
52798;SDS011;38667;42.872;74.622;2023-11-18T04:15:35;33.85;;;8.80;;
52798;SDS011;38667;42.872;74.622;2023-11-18T04:18:02;36.00;;;8.18;;
52798;SDS011;38667;42.872;74.622;2023-11-18T04:20:28;37.67;;;7.15;;
52798;SDS011;38667;42.872;74.622;2023-11-18T04:22:54;40.63;;;7.72;;
52798;SDS011;38667;42.872;74.622;2023-11-18T04:25:21;39.22;;;8.93;;
52798;SDS011;38667;42.872;74.622;2023-11-18T04:27:49;43.83;;;9.15;;
52798;SDS011;38667;42.872;74.622;2023-11-18T04:30:15;38.83;;;8.43;;
52798;SDS011;38667;42.872;74.622;2023-11-18T04:32:41;43.22;;;8.75;;
52798;SDS011;38667;42.872;74.622;2023-11-18T04:35:08;30.67;;;8.43;;
52798;SDS011;38667;42.872;74.622;2023-11-18T04:37:34;30.98;;;8.70;;
52798;SDS011;38667;42.872;74.622;2023-11-18T04:40:01;29.20;;;9.05;;
52798;SDS011;38667;42.872;74.622;2023-11-18T04:42:27;31.83;;;9.00;;
52798;SDS011;38667;42.872;74.622;2023-11-18T04:44:55;39.22;;;9.70;;
52798;SDS011;38667;42.872;74.622;2023-11-18T04:47:21;31.23;;;8.52;;
52798;SDS011;38667;42.872;74.622;2023-11-18T04:49:48;31.17;;;10.13;;
52798;SDS011;38667;42.872;74.622;2023-11-18T04:52:14;34.20;;;11.88;;
52798;SDS011;38667;42.872;74.622;2023-11-18T04:54:41;28.05;;;11.27;;
52798;SDS011;38667;42.872;74.622;2023-11-18T04:57:07;32.10;;;10.05;;
52798;SDS011;38667;42.872;74.622;2023-11-18T04:59:33;35.35;;;9.63;;
52798;SDS011;38667;42.872;74.622;2023-11-18T05:02:01;38.65;;;9.82;;
52798;SDS011;38667;42.872;74.622;2023-11-18T05:04:27;42.28;;;9.57;;
52798;SDS011;38667;42.872;74.622;2023-11-18T05:06:54;35.63;;;9.65;;
52798;SDS011;38667;42.872;74.622;2023-11-18T05:09:20;31.92;;;9.95;;
52798;SDS011;38667;42.872;74.622;2023-11-18T05:11:46;31.88;;;9.25;;
52798;SDS011;38667;42.872;74.622;2023-11-18T05:14:13;31.23;;;8.80;;
52798;SDS011;38667;42.872;74.622;2023-11-18T05:16:39;36.22;;;8.70;;
52798;SDS011;38667;42.872;74.622;2023-11-18T05:19:07;33.17;;;6.25;;
52798;SDS011;38667;42.872;74.622;2023-11-18T05:21:34;24.45;;;4.43;;
52798;SDS011;38667;42.872;74.622;2023-11-18T05:24:00;22.38;;;5.25;;
52798;SDS011;38667;42.872;74.622;2023-11-18T05:26:26;27.17;;;5.03;;
52798;SDS011;38667;42.872;74.622;2023-11-18T05:28:52;22.98;;;5.78;;
52798;SDS011;38667;42.872;74.622;2023-11-18T05:31:19;16.10;;;5.10;;
52798;SDS011;38667;42.872;74.622;2023-11-18T05:33:45;20.85;;;5.72;;
52798;SDS011;38667;42.872;74.622;2023-11-18T05:36:13;26.25;;;6.97;;
52798;SDS011;38667;42.872;74.622;2023-11-18T05:38:39;24.40;;;6.97;;
52798;SDS011;38667;42.872;74.622;2023-11-18T05:41:06;19.27;;;6.22;;
52798;SDS011;38667;42.872;74.622;2023-11-18T05:43:32;23.58;;;6.97;;
52798;SDS011;38667;42.872;74.622;2023-11-18T05:45:59;25.38;;;6.70;;
52798;SDS011;38667;42.872;74.622;2023-11-18T05:48:25;25.90;;;6.45;;
52798;SDS011;38667;42.872;74.622;2023-11-18T05:50:51;16.13;;;4.90;;
52798;SDS011;38667;42.872;74.622;2023-11-18T05:53:19;17.60;;;4.60;;
52798;SDS011;38667;42.872;74.622;2023-11-18T05:55:45;18.65;;;5.05;;
52798;SDS011;38667;42.872;74.622;2023-11-18T05:58:12;18.80;;;5.07;;
52798;SDS011;38667;42.872;74.622;2023-11-18T06:00:38;19.67;;;5.85;;
52798;SDS011;38667;42.872;74.622;2023-11-18T06:03:04;23.30;;;5.50;;
52798;SDS011;38667;42.872;74.622;2023-11-18T06:05:31;19.45;;;4.57;;
52798;SDS011;38667;42.872;74.622;2023-11-18T06:07:57;15.82;;;3.83;;
52798;SDS011;38667;42.872;74.622;2023-11-18T06:10:25;16.35;;;4.57;;
52798;SDS011;38667;42.872;74.622;2023-11-18T06:12:51;25.95;;;4.85;;
52798;SDS011;38667;42.872;74.622;2023-11-18T06:15:17;12.57;;;3.80;;
52798;SDS011;38667;42.872;74.622;2023-11-18T06:17:44;10.15;;;3.20;;
52798;SDS011;38667;42.872;74.622;2023-11-18T06:20:10;12.32;;;3.10;;
52798;SDS011;38667;42.872;74.622;2023-11-18T06:22:36;12.65;;;3.10;;
52798;SDS011;38667;42.872;74.622;2023-11-18T06:25:03;15.82;;;3.53;;
52798;SDS011;38667;42.872;74.622;2023-11-18T06:27:32;10.48;;;3.10;;
52798;SDS011;38667;42.872;74.622;2023-11-18T06:29:58;7.13;;;2.85;;
52798;SDS011;38667;42.872;74.622;2023-11-18T06:32:24;10.80;;;2.58;;
52798;SDS011;38667;42.872;74.622;2023-11-18T06:34:51;7.47;;;2.50;;
52798;SDS011;38667;42.872;74.622;2023-11-18T06:37:17;10.38;;;2.60;;
52798;SDS011;38667;42.872;74.622;2023-11-18T06:39:43;11.98;;;2.63;;
52798;SDS011;38667;42.872;74.622;2023-11-18T06:42:09;7.47;;;3.08;;
52798;SDS011;38667;42.872;74.622;2023-11-18T06:44:37;11.98;;;2.78;;
52798;SDS011;38667;42.872;74.622;2023-11-18T06:47:04;10.80;;;2.58;;
52798;SDS011;38667;42.872;74.622;2023-11-18T06:49:30;16.80;;;4.05;;
52798;SDS011;38667;42.872;74.622;2023-11-18T06:51:57;27.23;;;5.55;;
52798;SDS011;38667;42.872;74.622;2023-11-18T06:54:23;19.95;;;5.18;;
52798;SDS011;38667;42.872;74.622;2023-11-18T06:56:49;22.42;;;6.22;;
52798;SDS011;38667;42.872;74.622;2023-11-18T06:59:15;19.63;;;5.00;;
52798;SDS011;38667;42.872;74.622;2023-11-18T07:01:43;16.67;;;4.45;;
52798;SDS011;38667;42.872;74.622;2023-11-18T07:04:10;16.25;;;4.47;;
52798;SDS011;38667;42.872;74.622;2023-11-18T07:06:36;9.55;;;2.90;;
52798;SDS011;38667;42.872;74.622;2023-11-18T07:09:03;17.23;;;4.00;;
52798;SDS011;38667;42.872;74.622;2023-11-18T07:11:30;16.17;;;3.38;;
52798;SDS011;38667;42.872;74.622;2023-11-18T07:13:56;13.02;;;3.05;;
52798;SDS011;38667;42.872;74.622;2023-11-18T07:16:23;15.30;;;3.20;;
52798;SDS011;38667;42.872;74.622;2023-11-18T07:18:51;16.35;;;3.13;;
52798;SDS011;38667;42.872;74.622;2023-11-18T07:21:18;16.08;;;3.83;;
52798;SDS011;38667;42.872;74.622;2023-11-18T07:23:44;13.70;;;4.28;;
52798;SDS011;38667;42.872;74.622;2023-11-18T07:26:11;18.58;;;4.18;;
52798;SDS011;38667;42.872;74.622;2023-11-18T07:28:37;16.55;;;3.83;;
52798;SDS011;38667;42.872;74.622;2023-11-18T07:31:03;18.13;;;4.07;;
52798;SDS011;38667;42.872;74.622;2023-11-18T07:33:30;16.10;;;3.30;;
52798;SDS011;38667;42.872;74.622;2023-11-18T07:35:58;12.70;;;3.15;;
52798;SDS011;38667;42.872;74.622;2023-11-18T07:38:24;15.43;;;3.90;;
52798;SDS011;38667;42.872;74.622;2023-11-18T07:40:51;14.52;;;3.50;;
52798;SDS011;38667;42.872;74.622;2023-11-18T07:43:17;15.88;;;4.10;;
52798;SDS011;38667;42.872;74.622;2023-11-18T07:45:43;15.23;;;5.57;;
52798;SDS011;38667;42.872;74.622;2023-11-18T07:48:10;14.50;;;4.35;;
52798;SDS011;38667;42.872;74.622;2023-11-18T07:50:37;13.55;;;4.35;;
52798;SDS011;38667;42.872;74.622;2023-11-18T07:53:06;21.13;;;4.40;;
52798;SDS011;38667;42.872;74.622;2023-11-18T07:55:32;12.18;;;4.68;;
52798;SDS011;38667;42.872;74.622;2023-11-18T07:57:59;24.52;;;5.88;;
52798;SDS011;38667;42.872;74.622;2023-11-18T08:00:26;15.63;;;4.57;;
52798;SDS011;38667;42.872;74.622;2023-11-18T08:02:53;21.48;;;5.47;;
52798;SDS011;38667;42.872;74.622;2023-11-18T08:05:19;28.33;;;6.55;;
52798;SDS011;38667;42.872;74.622;2023-11-18T08:07:45;24.10;;;7.07;;
52798;SDS011;38667;42.872;74.622;2023-11-18T08:10:13;20.65;;;6.05;;
52798;SDS011;38667;42.872;74.622;2023-11-18T08:12:39;19.48;;;5.53;;
52798;SDS011;38667;42.872;74.622;2023-11-18T08:15:06;23.27;;;6.22;;
52798;SDS011;38667;42.872;74.622;2023-11-18T08:17:33;18.45;;;6.03;;
52798;SDS011;38667;42.872;74.622;2023-11-18T08:19:59;24.02;;;6.75;;
52798;SDS011;38667;42.872;74.622;2023-11-18T08:22:25;22.88;;;6.60;;
52798;SDS011;38667;42.872;74.622;2023-11-18T08:24:52;26.02;;;8.73;;
52798;SDS011;38667;42.872;74.622;2023-11-18T08:27:20;22.55;;;8.30;;
52798;SDS011;38667;42.872;74.622;2023-11-18T08:29:46;18.33;;;8.20;;
52798;SDS011;38667;42.872;74.622;2023-11-18T08:32:12;27.73;;;9.02;;
52798;SDS011;38667;42.872;74.622;2023-11-18T08:34:38;27.60;;;9.30;;
52798;SDS011;38667;42.872;74.622;2023-11-18T08:37:05;25.98;;;7.32;;
52798;SDS011;38667;42.872;74.622;2023-11-18T08:39:31;28.17;;;7.70;;
52798;SDS011;38667;42.872;74.622;2023-11-18T08:41:58;19.15;;;7.50;;
52798;SDS011;38667;42.872;74.622;2023-11-18T08:44:25;35.70;;;8.93;;
52798;SDS011;38667;42.872;74.622;2023-11-18T08:46:52;38.53;;;13.05;;
52798;SDS011;38667;42.872;74.622;2023-11-18T08:49:18;26.75;;;11.05;;
52798;SDS011;38667;42.872;74.622;2023-11-18T08:51:45;21.05;;;8.05;;
52798;SDS011;38667;42.872;74.622;2023-11-18T08:54:11;27.65;;;8.10;;
52798;SDS011;38667;42.872;74.622;2023-11-18T08:56:39;27.38;;;7.35;;
52798;SDS011;38667;42.872;74.622;2023-11-18T08:59:05;25.95;;;10.05;;
52798;SDS011;38667;42.872;74.622;2023-11-18T09:01:33;25.88;;;7.63;;
52798;SDS011;38667;42.872;74.622;2023-11-18T09:03:59;25.73;;;7.68;;
52798;SDS011;38667;42.872;74.622;2023-11-18T09:06:25;22.58;;;7.28;;
52798;SDS011;38667;42.872;74.622;2023-11-18T09:08:52;20.98;;;6.97;;
52798;SDS011;38667;42.872;74.622;2023-11-18T09:11:19;20.23;;;7.30;;
52798;SDS011;38667;42.872;74.622;2023-11-18T09:13:46;26.40;;;7.43;;
52798;SDS011;38667;42.872;74.622;2023-11-18T09:16:13;43.05;;;11.52;;
52798;SDS011;38667;42.872;74.622;2023-11-18T09:18:42;30.15;;;11.23;;
52798;SDS011;38667;42.872;74.622;2023-11-18T09:21:09;39.03;;;10.73;;
52798;SDS011;38667;42.872;74.622;2023-11-18T09:23:36;38.80;;;10.75;;
52798;SDS011;38667;42.872;74.622;2023-11-18T09:26:02;47.50;;;11.80;;
52798;SDS011;38667;42.872;74.622;2023-11-18T09:28:29;36.15;;;10.45;;
52798;SDS011;38667;42.872;74.622;2023-11-18T09:30:55;54.03;;;12.57;;
52798;SDS011;38667;42.872;74.622;2023-11-18T09:33:22;35.42;;;10.25;;
52798;SDS011;38667;42.872;74.622;2023-11-18T09:35:51;34.70;;;9.40;;
52798;SDS011;38667;42.872;74.622;2023-11-18T09:38:18;37.13;;;9.90;;
52798;SDS011;38667;42.872;74.622;2023-11-18T09:40:44;40.63;;;11.27;;
52798;SDS011;38667;42.872;74.622;2023-11-18T09:43:12;34.60;;;10.20;;
52798;SDS011;38667;42.872;74.622;2023-11-18T09:45:38;36.58;;;10.10;;
52798;SDS011;38667;42.872;74.622;2023-11-18T09:48:05;39.67;;;12.90;;
52798;SDS011;38667;42.872;74.622;2023-11-18T09:50:32;32.65;;;8.88;;
52798;SDS011;38667;42.872;74.622;2023-11-18T09:53:02;22.00;;;7.53;;
52798;SDS011;38667;42.872;74.622;2023-11-18T09:55:34;16.15;;;6.97;;
52798;SDS011;38667;42.872;74.622;2023-11-18T09:58:09;20.55;;;7.05;;
52798;SDS011;38667;42.872;74.622;2023-11-18T10:00:43;17.27;;;6.53;;
52798;SDS011;38667;42.872;74.622;2023-11-18T10:03:12;14.55;;;6.35;;
52798;SDS011;38667;42.872;74.622;2023-11-18T10:05:39;17.40;;;7.55;;
52798;SDS011;38667;42.872;74.622;2023-11-18T10:08:08;18.50;;;6.72;;
52798;SDS011;38667;42.872;74.622;2023-11-18T10:10:35;18.40;;;6.50;;
52798;SDS011;38667;42.872;74.622;2023-11-18T10:13:01;18.23;;;6.70;;
52798;SDS011;38667;42.872;74.622;2023-11-18T10:15:28;21.15;;;6.18;;
52798;SDS011;38667;42.872;74.622;2023-11-18T10:17:55;25.10;;;7.28;;
52798;SDS011;38667;42.872;74.622;2023-11-18T10:20:21;27.80;;;9.00;;
52798;SDS011;38667;42.872;74.622;2023-11-18T10:22:48;41.83;;;18.40;;
52798;SDS011;38667;42.872;74.622;2023-11-18T10:25:16;66.22;;;23.65;;
52798;SDS011;38667;42.872;74.622;2023-11-18T10:27:49;82.18;;;32.00;;
52798;SDS011;38667;42.872;74.622;2023-11-18T10:30:16;88.95;;;39.55;;
52798;SDS011;38667;42.872;74.622;2023-11-18T10:32:42;84.20;;;38.50;;
52798;SDS011;38667;42.872;74.622;2023-11-18T10:35:09;87.72;;;37.83;;
52798;SDS011;38667;42.872;74.622;2023-11-18T10:37:35;87.00;;;36.25;;
52798;SDS011;38667;42.872;74.622;2023-11-18T10:40:03;76.95;;;33.65;;
52798;SDS011;38667;42.872;74.622;2023-11-18T10:42:31;62.50;;;30.85;;
52798;SDS011;38667;42.872;74.622;2023-11-18T10:44:58;67.50;;;27.38;;
52798;SDS011;38667;42.872;74.622;2023-11-18T10:47:25;64.47;;;26.98;;
52798;SDS011;38667;42.872;74.622;2023-11-18T10:49:51;53.65;;;26.40;;
52798;SDS011;38667;42.872;74.622;2023-11-18T10:52:19;59.58;;;26.05;;
52798;SDS011;38667;42.872;74.622;2023-11-18T10:54:50;63.00;;;24.77;;
52798;SDS011;38667;42.872;74.622;2023-11-18T10:57:16;60.50;;;24.55;;
52798;SDS011;38667;42.872;74.622;2023-11-18T11:02:25;48.97;;;21.20;;
52798;SDS011;38667;42.872;74.622;2023-11-18T11:04:55;48.58;;;20.88;;
52798;SDS011;38667;42.872;74.622;2023-11-18T11:07:21;50.15;;;19.60;;
52798;SDS011;38667;42.872;74.622;2023-11-18T11:09:49;42.65;;;18.80;;
52798;SDS011;38667;42.872;74.622;2023-11-18T11:12:15;44.30;;;19.00;;
52798;SDS011;38667;42.872;74.622;2023-11-18T11:14:45;38.92;;;18.38;;
52798;SDS011;38667;42.872;74.622;2023-11-18T11:17:27;41.90;;;18.33;;
52798;SDS011;38667;42.872;74.622;2023-11-18T11:19:55;44.72;;;17.90;;
52798;SDS011;38667;42.872;74.622;2023-11-18T11:22:30;41.80;;;19.88;;
52798;SDS011;38667;42.872;74.622;2023-11-18T11:25:03;51.83;;;22.23;;
52798;SDS011;38667;42.872;74.622;2023-11-18T11:27:38;63.50;;;26.27;;
52798;SDS011;38667;42.872;74.622;2023-11-18T11:30:14;64.85;;;24.85;;
52798;SDS011;38667;42.872;74.622;2023-11-18T11:32:50;65.00;;;25.75;;
52798;SDS011;38667;42.872;74.622;2023-11-18T11:35:19;53.03;;;23.00;;
52798;SDS011;38667;42.872;74.622;2023-11-18T11:37:48;52.05;;;21.63;;
52798;SDS011;38667;42.872;74.622;2023-11-18T11:40:15;49.28;;;19.67;;
52798;SDS011;38667;42.872;74.622;2023-11-18T11:42:42;47.80;;;20.92;;
52798;SDS011;38667;42.872;74.622;2023-11-18T11:45:09;47.22;;;20.88;;
52798;SDS011;38667;42.872;74.622;2023-11-18T11:47:36;43.97;;;20.17;;
52798;SDS011;38667;42.872;74.622;2023-11-18T11:50:06;46.42;;;21.52;;
52798;SDS011;38667;42.872;74.622;2023-11-18T11:52:36;55.60;;;22.00;;
52798;SDS011;38667;42.872;74.622;2023-11-18T11:55:07;44.65;;;21.65;;
52798;SDS011;38667;42.872;74.622;2023-11-18T11:57:38;44.38;;;21.33;;
52798;SDS011;38667;42.872;74.622;2023-11-18T12:00:05;55.22;;;21.85;;
52798;SDS011;38667;42.872;74.622;2023-11-18T12:02:35;45.92;;;21.55;;
52798;SDS011;38667;42.872;74.622;2023-11-18T12:05:01;53.83;;;21.15;;
52798;SDS011;38667;42.872;74.622;2023-11-18T12:07:30;51.33;;;21.60;;
52798;SDS011;38667;42.872;74.622;2023-11-18T12:09:57;51.55;;;21.48;;
52798;SDS011;38667;42.872;74.622;2023-11-18T12:12:24;52.72;;;23.38;;
52798;SDS011;38667;42.872;74.622;2023-11-18T12:14:51;52.28;;;23.70;;
52798;SDS011;38667;42.872;74.622;2023-11-18T12:17:18;56.92;;;24.95;;
52798;SDS011;38667;42.872;74.622;2023-11-18T12:19:44;54.78;;;24.17;;
52798;SDS011;38667;42.872;74.622;2023-11-18T12:22:13;49.97;;;23.77;;
52798;SDS011;38667;42.872;74.622;2023-11-18T12:24:39;57.20;;;23.40;;
52798;SDS011;38667;42.872;74.622;2023-11-18T12:27:06;53.25;;;24.08;;
52798;SDS011;38667;42.872;74.622;2023-11-18T12:29:32;42.20;;;21.48;;
52798;SDS011;38667;42.872;74.622;2023-11-18T12:31:59;48.90;;;21.55;;
52798;SDS011;38667;42.872;74.622;2023-11-18T12:34:48;56.95;;;22.20;;
52798;SDS011;38667;42.872;74.622;2023-11-18T12:37:28;47.20;;;20.20;;
52798;SDS011;38667;42.872;74.622;2023-11-18T12:40:23;48.33;;;19.73;;
52798;SDS011;38667;42.872;74.622;2023-11-18T12:43:12;54.05;;;20.38;;
52798;SDS011;38667;42.872;74.622;2023-11-18T12:45:56;46.15;;;20.75;;
52798;SDS011;38667;42.872;74.622;2023-11-18T12:48:43;50.92;;;22.45;;
52798;SDS011;38667;42.872;74.622;2023-11-18T12:51:09;48.80;;;22.08;;
52798;SDS011;38667;42.872;74.622;2023-11-18T12:53:38;52.13;;;22.63;;
52798;SDS011;38667;42.872;74.622;2023-11-18T12:56:05;57.83;;;23.60;;
52798;SDS011;38667;42.872;74.622;2023-11-18T12:58:32;49.53;;;22.60;;
52798;SDS011;38667;42.872;74.622;2023-11-18T13:00:58;61.92;;;23.73;;
52798;SDS011;38667;42.872;74.622;2023-11-18T13:03:25;52.88;;;22.88;;
52798;SDS011;38667;42.872;74.622;2023-11-18T13:05:51;57.92;;;23.92;;
52798;SDS011;38667;42.872;74.622;2023-11-18T13:08:17;57.03;;;23.60;;
52798;SDS011;38667;42.872;74.622;2023-11-18T13:10:46;48.08;;;19.77;;
52798;SDS011;38667;42.872;74.622;2023-11-18T13:13:12;53.97;;;20.17;;
52798;SDS011;38667;42.872;74.622;2023-11-18T13:15:39;51.00;;;19.80;;
52798;SDS011;38667;42.872;74.622;2023-11-18T13:18:06;56.40;;;20.02;;
52798;SDS011;38667;42.872;74.622;2023-11-18T13:20:32;57.25;;;21.35;;
52798;SDS011;38667;42.872;74.622;2023-11-18T13:22:59;52.92;;;21.17;;
52798;SDS011;38667;42.872;74.622;2023-11-18T13:25:25;52.17;;;20.90;;
52798;SDS011;38667;42.872;74.622;2023-11-18T13:27:53;56.17;;;23.63;;
52798;SDS011;38667;42.872;74.622;2023-11-18T13:30:19;56.83;;;23.08;;
52798;SDS011;38667;42.872;74.622;2023-11-18T13:32:46;56.53;;;21.77;;
52798;SDS011;38667;42.872;74.622;2023-11-18T13:35:12;50.33;;;22.00;;
52798;SDS011;38667;42.872;74.622;2023-11-18T13:37:39;58.45;;;21.52;;
52798;SDS011;38667;42.872;74.622;2023-11-18T13:40:06;45.63;;;20.38;;
52798;SDS011;38667;42.872;74.622;2023-11-18T13:42:33;48.92;;;19.73;;
52798;SDS011;38667;42.872;74.622;2023-11-18T13:45:02;53.67;;;19.50;;
52798;SDS011;38667;42.872;74.622;2023-11-18T13:47:30;56.72;;;20.38;;
52798;SDS011;38667;42.872;74.622;2023-11-18T13:49:58;54.40;;;19.88;;
52798;SDS011;38667;42.872;74.622;2023-11-18T13:52:24;53.53;;;21.77;;
52798;SDS011;38667;42.872;74.622;2023-11-18T13:54:51;43.33;;;21.50;;
52798;SDS011;38667;42.872;74.622;2023-11-18T13:57:17;55.90;;;21.58;;
52798;SDS011;38667;42.872;74.622;2023-11-18T13:59:45;52.17;;;21.17;;
52798;SDS011;38667;42.872;74.622;2023-11-18T14:02:13;41.65;;;17.15;;
52798;SDS011;38667;42.872;74.622;2023-11-18T14:04:40;56.35;;;17.45;;
52798;SDS011;38667;42.872;74.622;2023-11-18T14:07:06;47.25;;;17.33;;
52798;SDS011;38667;42.872;74.622;2023-11-18T14:09:33;51.90;;;16.95;;
52798;SDS011;38667;42.872;74.622;2023-11-18T14:11:59;39.72;;;15.68;;
52798;SDS011;38667;42.872;74.622;2023-11-18T14:14:26;45.95;;;16.42;;
52798;SDS011;38667;42.872;74.622;2023-11-18T14:16:52;46.13;;;16.52;;
52798;SDS011;38667;42.872;74.622;2023-11-18T14:19:20;50.50;;;17.02;;
52798;SDS011;38667;42.872;74.622;2023-11-18T14:21:47;48.30;;;18.00;;